YMA7468 UAAA-UZTT
Flight info
| Callsign | YMA7468 |
|---|---|
| Flight time | 1h 11m |
| Altitude | 34000 |
| Route | LAKEL1B LAKEL L135 MAMIR P984 TISIB TISIB2T |
| Aircraft | A320/M-SDE3FGHIRWY/LB1 |
Departure
| Time | 2026-05-05 09:20 |
|---|---|
| Airport | Almaty International Airport (UAAA) |
Arrival
| Time | 2026-05-05 10:31 |
|---|---|
| Airport | Tashkent International Airport (UZTT) |
| Time | Latitude | Longitude | Altitude | Speed | Heading |
|---|---|---|---|---|---|
| 2026-05-05 08:48 | 43.34847 | 77.01952 | 2231 ft | 0 kts | 184° |
| 2026-05-05 09:13 | 43.34846 | 77.01952 | 2231 ft | 0 kts | 183° |
| 2026-05-05 09:13 | 43.34836 | 77.01951 | 2231 ft | 3 kts | 187° |
| 2026-05-05 09:13 | 43.34814 | 77.01932 | 2232 ft | 5 kts | 234° |
| 2026-05-05 09:13 | 43.34800 | 77.01872 | 2232 ft | 8 kts | 265° |
| 2026-05-05 09:14 | 43.34805 | 77.01771 | 2231 ft | 12 kts | 277° |
| 2026-05-05 09:14 | 43.34817 | 77.01640 | 2231 ft | 16 kts | 276° |
| 2026-05-05 09:14 | 43.34787 | 77.01492 | 2231 ft | 18 kts | 211° |
| 2026-05-05 09:14 | 43.34662 | 77.01462 | 2235 ft | 17 kts | 178° |
| 2026-05-05 09:15 | 43.34549 | 77.01490 | 2239 ft | 15 kts | 161° |
| 2026-05-05 09:15 | 43.34455 | 77.01546 | 2240 ft | 14 kts | 155° |
| 2026-05-05 09:15 | 43.34367 | 77.01608 | 2241 ft | 14 kts | 152° |
| 2026-05-05 09:15 | 43.34279 | 77.01661 | 2242 ft | 9 kts | 158° |
| 2026-05-05 09:16 | 43.34269 | 77.01667 | 2242 ft | 0 kts | 158° |
| 2026-05-05 09:17 | 43.34268 | 77.01667 | 2242 ft | 0 kts | 158° |
| 2026-05-05 09:17 | 43.34234 | 77.01686 | 2243 ft | 11 kts | 157° |
| 2026-05-05 09:17 | 43.34162 | 77.01757 | 2245 ft | 12 kts | 115° |
| 2026-05-05 09:18 | 43.34168 | 77.01837 | 2245 ft | 0 kts | 61° |
| 2026-05-05 09:20 | 43.34226 | 77.01950 | 2244 ft | 47 kts | 55° |
| 2026-05-05 09:20 | 43.34545 | 77.02596 | 2243 ft | 114 kts | 54° |
| 2026-05-05 09:20 | 43.35104 | 77.03700 | 2245 ft | 166 kts | 51° |
| 2026-05-05 09:20 | 43.35745 | 77.04939 | 3000 ft | 149 kts | 57° |
| 2026-05-05 09:21 | 43.36314 | 77.06102 | 3546 ft | 151 kts | 53° |
| 2026-05-05 09:21 | 43.36976 | 77.07287 | 3986 ft | 163 kts | 52° |
| 2026-05-05 09:21 | 43.37717 | 77.08569 | 4432 ft | 177 kts | 51° |
| 2026-05-05 09:21 | 43.38515 | 77.09917 | 4974 ft | 189 kts | 51° |
| 2026-05-05 09:22 | 43.39356 | 77.11366 | 5521 ft | 201 kts | 51° |
| 2026-05-05 09:22 | 43.40244 | 77.12904 | 6066 ft | 214 kts | 51° |
| 2026-05-05 09:22 | 43.41199 | 77.14565 | 6501 ft | 233 kts | 51° |
| 2026-05-05 09:22 | 43.42264 | 77.16421 | 6920 ft | 254 kts | 51° |
| 2026-05-05 09:23 | 43.43399 | 77.18398 | 7301 ft | 275 kts | 51° |
| 2026-05-05 09:23 | 43.44624 | 77.20525 | 7691 ft | 295 kts | 51° |
| 2026-05-05 09:23 | 43.45961 | 77.22838 | 8123 ft | 316 kts | 51° |
| 2026-05-05 09:23 | 43.47364 | 77.25257 | 8523 ft | 334 kts | 51° |
| 2026-05-05 09:24 | 43.48859 | 77.27825 | 8871 ft | 352 kts | 51° |
| 2026-05-05 09:24 | 43.50419 | 77.30503 | 9260 ft | 367 kts | 51° |
| 2026-05-05 09:24 | 43.52051 | 77.33297 | 9653 ft | 382 kts | 51° |
| 2026-05-05 09:24 | 43.53694 | 77.36105 | 10098 ft | 394 kts | 51° |
| 2026-05-05 09:25 | 43.55487 | 77.39162 | 10485 ft | 406 kts | 51° |
| 2026-05-05 09:25 | 43.57265 | 77.42188 | 10990 ft | 413 kts | 51° |
| 2026-05-05 09:25 | 43.59063 | 77.45244 | 11718 ft | 402 kts | 51° |
| 2026-05-05 09:25 | 43.60764 | 77.48133 | 12203 ft | 366 kts | 51° |
| 2026-05-05 09:26 | 43.62286 | 77.50710 | 12603 ft | 335 kts | 51° |
| 2026-05-05 09:26 | 43.63707 | 77.53087 | 12984 ft | 304 kts | 51° |
| 2026-05-05 09:26 | 43.64993 | 77.55225 | 13395 ft | 292 kts | 51° |
| 2026-05-05 09:26 | 43.66331 | 77.57446 | 13811 ft | 307 kts | 51° |
| 2026-05-05 09:27 | 43.67721 | 77.59759 | 14261 ft | 320 kts | 52° |
| 2026-05-05 09:27 | 43.68814 | 77.62473 | 14723 ft | 331 kts | 75° |
| 2026-05-05 09:27 | 43.68883 | 77.65645 | 15190 ft | 342 kts | 102° |
| 2026-05-05 09:27 | 43.67855 | 77.68642 | 15733 ft | 354 kts | 127° |
| 2026-05-05 09:28 | 43.65990 | 77.70847 | 16257 ft | 367 kts | 150° |
| 2026-05-05 09:28 | 43.63518 | 77.71860 | 16796 ft | 379 kts | 175° |
| 2026-05-05 09:28 | 43.60884 | 77.71344 | 17354 ft | 389 kts | 199° |
| 2026-05-05 09:28 | 43.58574 | 77.69342 | 17929 ft | 398 kts | 224° |
| 2026-05-05 09:29 | 43.56881 | 77.66338 | 18511 ft | 402 kts | 237° |
| 2026-05-05 09:29 | 43.55419 | 77.63005 | 19140 ft | 406 kts | 239° |
| 2026-05-05 09:29 | 43.53965 | 77.59651 | 19754 ft | 410 kts | 239° |
| 2026-05-05 09:29 | 43.52473 | 77.56338 | 20352 ft | 412 kts | 238° |
| 2026-05-05 09:30 | 43.50906 | 77.52973 | 20998 ft | 414 kts | 237° |
| 2026-05-05 09:30 | 43.49329 | 77.49663 | 21640 ft | 416 kts | 237° |
| 2026-05-05 09:30 | 43.47719 | 77.46330 | 22280 ft | 417 kts | 237° |
| 2026-05-05 09:30 | 43.46106 | 77.43014 | 22925 ft | 418 kts | 237° |
| 2026-05-05 09:31 | 43.44468 | 77.39665 | 23592 ft | 418 kts | 237° |
| 2026-05-05 09:31 | 43.42840 | 77.36343 | 24259 ft | 418 kts | 237° |
| 2026-05-05 09:31 | 43.41228 | 77.33058 | 24913 ft | 417 kts | 236° |
| 2026-05-05 09:31 | 43.39568 | 77.29684 | 25553 ft | 416 kts | 236° |
| 2026-05-05 09:32 | 43.37962 | 77.26422 | 26172 ft | 414 kts | 237° |
| 2026-05-05 09:32 | 43.36340 | 77.23133 | 26801 ft | 412 kts | 237° |
| 2026-05-05 09:32 | 43.34731 | 77.19875 | 27428 ft | 410 kts | 237° |
| 2026-05-05 09:32 | 43.33107 | 77.16588 | 28059 ft | 407 kts | 237° |
| 2026-05-05 09:33 | 43.31531 | 77.13404 | 28671 ft | 404 kts | 237° |
| 2026-05-05 09:33 | 43.29947 | 77.10204 | 29291 ft | 401 kts | 237° |
| 2026-05-05 09:33 | 43.28399 | 77.07081 | 29907 ft | 398 kts | 237° |
| 2026-05-05 09:33 | 43.26849 | 77.03960 | 30529 ft | 395 kts | 237° |
| 2026-05-05 09:34 | 43.25308 | 77.00855 | 31154 ft | 391 kts | 237° |
| 2026-05-05 09:34 | 43.23744 | 76.97834 | 31774 ft | 387 kts | 234° |
| 2026-05-05 09:34 | 43.22097 | 76.94988 | 32383 ft | 383 kts | 231° |
| 2026-05-05 09:34 | 43.20323 | 76.92249 | 33000 ft | 378 kts | 228° |
| 2026-05-05 09:35 | 43.18504 | 76.89730 | 33597 ft | 373 kts | 225° |
| 2026-05-05 09:35 | 43.14604 | 76.85119 | 34313 ft | 375 kts | 219° |
| 2026-05-05 09:35 | 43.12475 | 76.82937 | 34333 ft | 384 kts | 218° |
| 2026-05-05 09:36 | 43.08111 | 76.78495 | 34388 ft | 400 kts | 218° |
| 2026-05-05 09:36 | 43.03548 | 76.73849 | 34391 ft | 416 kts | 218° |
| 2026-05-05 09:37 | 42.98814 | 76.69031 | 34378 ft | 428 kts | 218° |
| 2026-05-05 09:37 | 42.94308 | 76.63760 | 34384 ft | 428 kts | 226° |
| 2026-05-05 09:38 | 42.90488 | 76.57542 | 34381 ft | 427 kts | 236° |
| 2026-05-05 09:38 | 42.87483 | 76.50555 | 34383 ft | 426 kts | 245° |
| 2026-05-05 09:39 | 42.85009 | 76.43204 | 34367 ft | 427 kts | 246° |
| 2026-05-05 09:39 | 42.82564 | 76.35880 | 34366 ft | 427 kts | 246° |
| 2026-05-05 09:40 | 42.80077 | 76.28480 | 34366 ft | 428 kts | 245° |
| 2026-05-05 09:40 | 42.77600 | 76.21143 | 34350 ft | 428 kts | 245° |
| 2026-05-05 09:41 | 42.75108 | 76.13783 | 34353 ft | 429 kts | 245° |
| 2026-05-05 09:41 | 42.72605 | 76.06419 | 34312 ft | 430 kts | 245° |
| 2026-05-05 09:42 | 42.70075 | 75.98996 | 34326 ft | 431 kts | 245° |
| 2026-05-05 09:42 | 42.67561 | 75.91640 | 34318 ft | 430 kts | 245° |
| 2026-05-05 09:43 | 42.65048 | 75.84300 | 34306 ft | 430 kts | 245° |
| 2026-05-05 09:43 | 42.62519 | 75.76932 | 34307 ft | 430 kts | 245° |
| 2026-05-05 09:44 | 42.59989 | 75.69588 | 34307 ft | 431 kts | 245° |
| 2026-05-05 09:44 | 42.57444 | 75.62219 | 34324 ft | 431 kts | 244° |
| 2026-05-05 09:45 | 42.54894 | 75.54858 | 34322 ft | 431 kts | 245° |
| 2026-05-05 09:45 | 42.52330 | 75.47473 | 34341 ft | 431 kts | 244° |
| 2026-05-05 09:46 | 42.49778 | 75.40139 | 34352 ft | 431 kts | 244° |
| 2026-05-05 09:46 | 42.47209 | 75.32781 | 34346 ft | 432 kts | 244° |
| 2026-05-05 09:47 | 42.44623 | 75.25391 | 34315 ft | 433 kts | 244° |
| 2026-05-05 09:47 | 42.42198 | 75.17918 | 34314 ft | 434 kts | 249° |
| 2026-05-05 09:48 | 42.40185 | 75.10154 | 34313 ft | 435 kts | 250° |
| 2026-05-05 09:48 | 42.38215 | 75.02451 | 34313 ft | 436 kts | 250° |
| 2026-05-05 09:49 | 42.36220 | 74.94691 | 34311 ft | 436 kts | 250° |
| 2026-05-05 09:49 | 42.34230 | 74.86989 | 34308 ft | 436 kts | 250° |
| 2026-05-05 09:50 | 42.32211 | 74.79200 | 34315 ft | 437 kts | 250° |
| 2026-05-05 09:50 | 42.30198 | 74.71471 | 34331 ft | 438 kts | 251° |
| 2026-05-05 09:51 | 42.28175 | 74.63705 | 34325 ft | 438 kts | 250° |
| 2026-05-05 09:51 | 42.26152 | 74.55975 | 34327 ft | 436 kts | 250° |
| 2026-05-05 09:52 | 42.24118 | 74.48234 | 34330 ft | 437 kts | 250° |
| 2026-05-05 09:52 | 42.22075 | 74.40483 | 34325 ft | 437 kts | 250° |
| 2026-05-05 09:53 | 42.20019 | 74.32711 | 34333 ft | 437 kts | 250° |
| 2026-05-05 09:53 | 42.17974 | 74.25000 | 34343 ft | 436 kts | 250° |
| 2026-05-05 09:54 | 42.15912 | 74.17245 | 34355 ft | 437 kts | 250° |
| 2026-05-05 09:54 | 42.13840 | 74.09480 | 34364 ft | 436 kts | 250° |
| 2026-05-05 09:55 | 42.11784 | 74.01802 | 34354 ft | 436 kts | 250° |
| 2026-05-05 09:55 | 42.09713 | 73.94096 | 34347 ft | 436 kts | 250° |
| 2026-05-05 09:56 | 42.07662 | 73.86485 | 34353 ft | 436 kts | 250° |
| 2026-05-05 09:56 | 42.05592 | 73.78830 | 34359 ft | 436 kts | 250° |
| 2026-05-05 09:57 | 42.03576 | 73.71094 | 34356 ft | 436 kts | 252° |
| 2026-05-05 09:57 | 42.01652 | 73.63387 | 34358 ft | 437 kts | 252° |
| 2026-05-05 09:58 | 41.99709 | 73.55666 | 34352 ft | 436 kts | 252° |
| 2026-05-05 09:58 | 41.97771 | 73.48017 | 34349 ft | 435 kts | 252° |
| 2026-05-05 09:59 | 41.95819 | 73.40343 | 34349 ft | 435 kts | 252° |
| 2026-05-05 09:59 | 41.93861 | 73.32675 | 34353 ft | 436 kts | 251° |
| 2026-05-05 10:00 | 41.91898 | 73.25017 | 34348 ft | 436 kts | 251° |
| 2026-05-05 10:00 | 41.89913 | 73.17293 | 34342 ft | 436 kts | 252° |
| 2026-05-05 10:01 | 41.87935 | 73.09620 | 34332 ft | 436 kts | 252° |
| 2026-05-05 10:01 | 41.85953 | 73.01966 | 34320 ft | 435 kts | 252° |
| 2026-05-05 10:02 | 41.83962 | 72.94303 | 34300 ft | 435 kts | 252° |
| 2026-05-05 10:02 | 41.81983 | 72.86682 | 34301 ft | 433 kts | 252° |
| 2026-05-05 10:03 | 41.79998 | 72.79079 | 34300 ft | 433 kts | 252° |
| 2026-05-05 10:03 | 41.78009 | 72.71478 | 34274 ft | 434 kts | 252° |
| 2026-05-05 10:04 | 41.76009 | 72.63859 | 34277 ft | 434 kts | 252° |
| 2026-05-05 10:04 | 41.74002 | 72.56239 | 34287 ft | 435 kts | 252° |
| 2026-05-05 10:05 | 41.71990 | 72.48623 | 34298 ft | 435 kts | 252° |
| 2026-05-05 10:05 | 41.69977 | 72.41037 | 34291 ft | 434 kts | 253° |
| 2026-05-05 10:06 | 41.67942 | 72.33382 | 34304 ft | 434 kts | 252° |
| 2026-05-05 10:06 | 41.65922 | 72.25809 | 34306 ft | 433 kts | 252° |
| 2026-05-05 10:07 | 41.63904 | 72.18265 | 34283 ft | 433 kts | 252° |
| 2026-05-05 10:07 | 41.61874 | 72.10701 | 34296 ft | 434 kts | 252° |
| 2026-05-05 10:08 | 41.59830 | 72.03110 | 34294 ft | 433 kts | 253° |
| 2026-05-05 10:08 | 41.58574 | 71.95339 | 34299 ft | 429 kts | 264° |
| 2026-05-05 10:09 | 41.57727 | 71.87444 | 34293 ft | 429 kts | 264° |
| 2026-05-05 10:09 | 41.56863 | 71.79597 | 34300 ft | 428 kts | 264° |
| 2026-05-05 10:10 | 41.55977 | 71.71779 | 34197 ft | 425 kts | 264° |
| 2026-05-05 10:10 | 41.55533 | 71.67904 | 33433 ft | 431 kts | 264° |
| 2026-05-05 10:10 | 41.55077 | 71.63911 | 32183 ft | 445 kts | 263° |
| 2026-05-05 10:11 | 41.54608 | 71.59816 | 30806 ft | 459 kts | 263° |
| 2026-05-05 10:11 | 41.54118 | 71.55570 | 29542 ft | 467 kts | 263° |
| 2026-05-05 10:11 | 41.53620 | 71.51300 | 28439 ft | 470 kts | 262° |
| 2026-05-05 10:11 | 41.53117 | 71.47021 | 27397 ft | 472 kts | 262° |
| 2026-05-05 10:12 | 41.52606 | 71.42685 | 26312 ft | 473 kts | 262° |
| 2026-05-05 10:12 | 41.52096 | 71.38361 | 25167 ft | 475 kts | 262° |
| 2026-05-05 10:12 | 41.51581 | 71.34003 | 23984 ft | 477 kts | 261° |
| 2026-05-05 10:12 | 41.51070 | 71.29688 | 23252 ft | 469 kts | 261° |
| 2026-05-05 10:13 | 41.50565 | 71.25452 | 22609 ft | 460 kts | 261° |
| 2026-05-05 10:13 | 41.50068 | 71.21307 | 21866 ft | 455 kts | 261° |
| 2026-05-05 10:13 | 41.49572 | 71.17183 | 21130 ft | 450 kts | 261° |
| 2026-05-05 10:13 | 41.49076 | 71.13073 | 20413 ft | 445 kts | 261° |
| 2026-05-05 10:14 | 41.48592 | 71.09064 | 19681 ft | 440 kts | 261° |
| 2026-05-05 10:14 | 41.48109 | 71.05078 | 18972 ft | 435 kts | 261° |
| 2026-05-05 10:14 | 41.47629 | 71.01119 | 18256 ft | 430 kts | 261° |
| 2026-05-05 10:14 | 41.47154 | 70.97216 | 17586 ft | 426 kts | 261° |
| 2026-05-05 10:15 | 41.46682 | 70.93348 | 16926 ft | 421 kts | 261° |
| 2026-05-05 10:15 | 41.46222 | 70.89577 | 16245 ft | 418 kts | 261° |
| 2026-05-05 10:15 | 41.45755 | 70.85758 | 15558 ft | 414 kts | 261° |
| 2026-05-05 10:15 | 41.45288 | 70.81958 | 14878 ft | 411 kts | 261° |
| 2026-05-05 10:16 | 41.44832 | 70.78258 | 14237 ft | 407 kts | 261° |
| 2026-05-05 10:16 | 41.44378 | 70.74605 | 13749 ft | 398 kts | 261° |
| 2026-05-05 10:16 | 41.43929 | 70.71002 | 13569 ft | 382 kts | 261° |
| 2026-05-05 10:16 | 41.43510 | 70.67638 | 13556 ft | 363 kts | 261° |
| 2026-05-05 10:17 | 41.43097 | 70.64328 | 13554 ft | 359 kts | 261° |
| 2026-05-05 10:17 | 41.42688 | 70.61047 | 13718 ft | 364 kts | 261° |
| 2026-05-05 10:17 | 41.42272 | 70.57722 | 14381 ft | 366 kts | 261° |
| 2026-05-05 10:17 | 41.41855 | 70.54406 | 14736 ft | 366 kts | 261° |
| 2026-05-05 10:18 | 41.41430 | 70.51041 | 15001 ft | 367 kts | 261° |
| 2026-05-05 10:18 | 41.41009 | 70.47708 | 15269 ft | 367 kts | 261° |
| 2026-05-05 10:18 | 41.40588 | 70.44376 | 15201 ft | 364 kts | 261° |
| 2026-05-05 10:18 | 41.40167 | 70.41049 | 14469 ft | 370 kts | 261° |
| 2026-05-05 10:19 | 41.39735 | 70.37645 | 13499 ft | 379 kts | 260° |
| 2026-05-05 10:19 | 41.39293 | 70.34180 | 12549 ft | 386 kts | 260° |
| 2026-05-05 10:19 | 41.38848 | 70.30706 | 11875 ft | 384 kts | 260° |
| 2026-05-05 10:19 | 41.38406 | 70.27248 | 11462 ft | 375 kts | 260° |
| 2026-05-05 10:20 | 41.37974 | 70.23878 | 11145 ft | 363 kts | 260° |
| 2026-05-05 10:20 | 41.37555 | 70.20623 | 10835 ft | 353 kts | 260° |
| 2026-05-05 10:20 | 41.37146 | 70.17454 | 10537 ft | 343 kts | 260° |
| 2026-05-05 10:20 | 41.36751 | 70.14384 | 10247 ft | 334 kts | 259° |
| 2026-05-05 10:21 | 41.36360 | 70.11362 | 9961 ft | 325 kts | 259° |
| 2026-05-05 10:21 | 41.35983 | 70.08459 | 9687 ft | 317 kts | 259° |
| 2026-05-05 10:21 | 41.35611 | 70.05602 | 9413 ft | 309 kts | 259° |
| 2026-05-05 10:21 | 41.35249 | 70.02832 | 9151 ft | 302 kts | 259° |
| 2026-05-05 10:22 | 41.34897 | 70.00147 | 8896 ft | 295 kts | 259° |
| 2026-05-05 10:22 | 41.34546 | 69.97468 | 8626 ft | 287 kts | 259° |
| 2026-05-05 10:22 | 41.34209 | 69.94901 | 8367 ft | 281 kts | 260° |
| 2026-05-05 10:22 | 41.33873 | 69.92347 | 7954 ft | 281 kts | 260° |
| 2026-05-05 10:23 | 41.33538 | 69.89799 | 7241 ft | 292 kts | 260° |
| 2026-05-05 10:23 | 41.33175 | 69.87056 | 6434 ft | 305 kts | 260° |
| 2026-05-05 10:23 | 41.32807 | 69.84272 | 5672 ft | 314 kts | 260° |
| 2026-05-05 10:23 | 41.32428 | 69.81399 | 5170 ft | 312 kts | 260° |
| 2026-05-05 10:24 | 41.32059 | 69.78613 | 4967 ft | 299 kts | 260° |
| 2026-05-05 10:24 | 41.31709 | 69.75979 | 4935 ft | 282 kts | 260° |
| 2026-05-05 10:24 | 41.31376 | 69.73474 | 4883 ft | 266 kts | 260° |
| 2026-05-05 10:24 | 41.31059 | 69.71098 | 4459 ft | 268 kts | 260° |
| 2026-05-05 10:25 | 41.30735 | 69.68665 | 4260 ft | 260 kts | 260° |
| 2026-05-05 10:25 | 41.30421 | 69.66315 | 4084 ft | 251 kts | 260° |
| 2026-05-05 10:25 | 41.30121 | 69.64069 | 3890 ft | 244 kts | 260° |
| 2026-05-05 10:25 | 41.29824 | 69.61865 | 3605 ft | 241 kts | 260° |
| 2026-05-05 10:26 | 41.29535 | 69.59719 | 3440 ft | 233 kts | 260° |
| 2026-05-05 10:26 | 41.29253 | 69.57630 | 3373 ft | 221 kts | 260° |
| 2026-05-05 10:26 | 41.28995 | 69.55711 | 3357 ft | 206 kts | 260° |
| 2026-05-05 10:26 | 41.28749 | 69.53889 | 3339 ft | 192 kts | 260° |
| 2026-05-05 10:27 | 41.28523 | 69.52220 | 3331 ft | 176 kts | 260° |
| 2026-05-05 10:27 | 41.28334 | 69.50749 | 3365 ft | 157 kts | 261° |
| 2026-05-05 10:27 | 41.28173 | 69.49288 | 3362 ft | 155 kts | 262° |
| 2026-05-05 10:27 | 41.28021 | 69.47876 | 3350 ft | 155 kts | 262° |
| 2026-05-05 10:28 | 41.27870 | 69.46479 | 3305 ft | 148 kts | 262° |
| 2026-05-05 10:28 | 41.27725 | 69.45155 | 3041 ft | 143 kts | 262° |
| 2026-05-05 10:28 | 41.27586 | 69.43887 | 2751 ft | 139 kts | 261° |
| 2026-05-05 10:28 | 41.27448 | 69.42640 | 2426 ft | 138 kts | 262° |
| 2026-05-05 10:29 | 41.27311 | 69.41390 | 2093 ft | 138 kts | 262° |
| 2026-05-05 10:29 | 41.27177 | 69.40140 | 1756 ft | 138 kts | 261° |
| 2026-05-05 10:29 | 41.27076 | 69.38904 | 1795 ft | 134 kts | 266° |
| 2026-05-05 10:29 | 41.26988 | 69.37604 | 1917 ft | 157 kts | 260° |
| 2026-05-05 10:30 | 41.26825 | 69.36089 | 2055 ft | 165 kts | 259° |
| 2026-05-05 10:30 | 41.26682 | 69.34756 | 2155 ft | 131 kts | 257° |
| 2026-05-05 10:30 | 41.26535 | 69.33573 | 1924 ft | 133 kts | 256° |
| 2026-05-05 10:30 | 41.26375 | 69.32421 | 1805 ft | 128 kts | 256° |
| 2026-05-05 10:31 | 41.26215 | 69.31300 | 1584 ft | 121 kts | 254° |
| 2026-05-05 10:31 | 41.26072 | 69.30233 | 1424 ft | 109 kts | 262° |
| 2026-05-05 10:31 | 41.25983 | 69.29392 | 1423 ft | 74 kts | 264° |
| 2026-05-05 10:31 | 41.25993 | 69.28922 | 1423 ft | 36 kts | 307° |
| 2026-05-05 10:32 | 41.26141 | 69.28736 | 1423 ft | 19 kts | 303° |
| 2026-05-05 10:32 | 41.26186 | 69.28573 | 1422 ft | 18 kts | 272° |
| 2026-05-05 10:32 | 41.26186 | 69.28407 | 1422 ft | 18 kts | 267° |
| 2026-05-05 10:32 | 41.26172 | 69.28233 | 1422 ft | 20 kts | 259° |
| 2026-05-05 10:33 | 41.26150 | 69.28041 | 1422 ft | 22 kts | 259° |
| 2026-05-05 10:33 | 41.26128 | 69.27831 | 1422 ft | 23 kts | 262° |
| 2026-05-05 10:33 | 41.26101 | 69.27611 | 1422 ft | 24 kts | 258° |
| 2026-05-05 10:33 | 41.26073 | 69.27392 | 1422 ft | 22 kts | 260° |
| 2026-05-05 10:34 | 41.26101 | 69.27255 | 1422 ft | 9 kts | 320° |
| 2026-05-05 10:34 | 41.26115 | 69.27168 | 1422 ft | 10 kts | 265° |
| 2026-05-05 10:34 | 41.26100 | 69.27071 | 1422 ft | 11 kts | 256° |
| 2026-05-05 10:34 | 41.26080 | 69.26964 | 1422 ft | 12 kts | 255° |
| 2026-05-05 10:35 | 41.26057 | 69.26846 | 1422 ft | 9 kts | 267° |
| 2026-05-05 10:35 | 41.26081 | 69.26773 | 1422 ft | 7 kts | 316° |
| 2026-05-05 10:35 | 41.26105 | 69.26748 | 1422 ft | 0 kts | 324° |